createdAt,value
2019-02-21T00:00:05.386Z,2.80
2019-02-21T00:01:08.069Z,2.80
2019-02-21T00:02:07.667Z,2.80
2019-02-21T00:03:04.717Z,2.80
2019-02-21T00:04:04.856Z,2.70
2019-02-21T00:05:04.920Z,2.80
2019-02-21T00:06:05.064Z,2.80
2019-02-21T00:07:05.138Z,2.70
2019-02-21T00:08:05.313Z,2.80
2019-02-21T00:09:07.985Z,2.70
2019-02-21T00:10:10.007Z,2.70
2019-02-21T00:11:07.523Z,2.70
2019-02-21T00:12:05.738Z,2.70
2019-02-21T00:13:10.036Z,2.70
2019-02-21T00:14:05.076Z,2.70
2019-02-21T00:15:05.213Z,2.70
2019-02-21T00:16:05.390Z,2.70
2019-02-21T00:17:05.818Z,2.70
2019-02-21T00:18:05.022Z,2.60
2019-02-21T00:19:05.235Z,2.60
2019-02-21T00:20:07.899Z,2.60
2019-02-21T00:21:04.887Z,2.60
2019-02-21T00:22:07.617Z,2.60
2019-02-21T00:23:04.708Z,2.60
2019-02-21T00:24:04.935Z,2.50
2019-02-21T00:25:05.082Z,2.60
2019-02-21T00:26:05.234Z,2.50
2019-02-21T00:27:07.845Z,2.50
2019-02-21T00:28:04.817Z,2.50
2019-02-21T00:29:04.949Z,2.50
2019-02-21T00:30:07.672Z,2.50
2019-02-21T00:31:08.137Z,2.50
2019-02-21T00:32:05.197Z,2.50
2019-02-21T00:33:05.500Z,2.50
2019-02-21T00:34:05.748Z,2.40
2019-02-21T00:35:07.489Z,2.40
2019-02-21T00:36:05.428Z,2.40
2019-02-21T00:37:05.611Z,2.40
2019-02-21T00:38:04.743Z,2.40
2019-02-21T00:39:07.439Z,2.40
2019-02-21T00:40:07.924Z,2.40
2019-02-21T00:41:04.899Z,2.40
2019-02-21T00:42:05.063Z,2.40
2019-02-21T00:43:05.262Z,2.40
2019-02-21T00:44:05.431Z,2.40
2019-02-21T00:45:05.581Z,2.30
2019-02-21T00:46:04.773Z,2.30
2019-02-21T00:47:04.888Z,2.40
2019-02-21T00:48:07.506Z,2.40
2019-02-21T00:49:05.638Z,2.30
2019-02-21T00:50:07.316Z,2.30
2019-02-21T00:51:05.398Z,2.30
2019-02-21T00:52:05.630Z,2.30
2019-02-21T00:53:04.744Z,2.30
2019-02-21T00:54:04.901Z,2.30
2019-02-21T00:55:05.025Z,2.30
2019-02-21T00:56:07.784Z,2.30
2019-02-21T00:57:04.739Z,2.30
2019-02-21T00:58:07.389Z,2.30
2019-02-21T00:59:07.953Z,2.30
2019-02-21T01:00:04.913Z,2.20
2019-02-21T01:01:05.178Z,2.20
2019-02-21T01:02:05.376Z,2.20
2019-02-21T01:03:05.548Z,2.20
2019-02-21T01:04:07.299Z,2.20
2019-02-21T01:05:05.315Z,2.20
2019-02-21T01:06:05.575Z,2.20
2019-02-21T01:07:07.488Z,2.20
2019-02-21T01:08:05.463Z,2.20
2019-02-21T01:09:08.167Z,2.20
2019-02-21T01:10:05.173Z,2.20
2019-02-21T01:11:07.746Z,2.20
2019-02-21T01:12:04.654Z,2.20
2019-02-21T01:13:07.256Z,2.30
2019-02-21T01:14:05.356Z,2.20
2019-02-21T01:15:08.021Z,2.20
2019-02-21T01:16:07.445Z,2.30
2019-02-21T01:17:05.424Z,2.20
2019-02-21T01:18:05.648Z,2.30
2019-02-21T01:19:04.787Z,2.20
2019-02-21T01:20:04.935Z,2.20
2019-02-21T01:21:07.662Z,2.20
2019-02-21T01:22:07.299Z,2.20
2019-02-21T01:23:05.374Z,2.20
2019-02-21T01:24:05.450Z,2.20
2019-02-21T01:25:08.144Z,2.20
2019-02-21T01:26:07.719Z,2.20
2019-02-21T01:27:07.409Z,2.20
2019-02-21T01:28:05.463Z,2.20
2019-02-21T01:29:05.623Z,2.20
2019-02-21T01:30:05.021Z,2.20
2019-02-21T01:31:05.161Z,2.20
2019-02-21T01:32:07.749Z,2.20
2019-02-21T01:33:04.869Z,2.20
2019-02-21T01:34:05.161Z,2.20
2019-02-21T01:35:05.338Z,2.20
2019-02-21T01:36:05.494Z,2.20
2019-02-21T01:37:05.600Z,2.20
2019-02-21T01:38:04.821Z,2.20
2019-02-21T01:39:07.586Z,2.20
2019-02-21T01:40:05.612Z,2.10
2019-02-21T01:41:04.900Z,2.20
2019-02-21T01:42:07.546Z,2.10
2019-02-21T01:43:05.458Z,2.10
2019-02-21T01:44:05.703Z,2.10
2019-02-21T01:45:04.806Z,2.10
2019-02-21T01:46:04.836Z,2.10
2019-02-21T01:47:04.915Z,2.10
2019-02-21T01:48:10.076Z,2.10
2019-02-21T01:49:12.719Z,2.10
2019-02-21T01:50:04.766Z,2.00
2019-02-21T01:51:04.692Z,2.00
2019-02-21T01:52:04.922Z,2.00
2019-02-21T01:53:07.617Z,2.00
2019-02-21T01:54:05.518Z,2.00
2019-02-21T01:55:05.714Z,2.00
2019-02-21T01:56:04.899Z,2.00
2019-02-21T01:57:05.170Z,2.00
2019-02-21T01:58:05.452Z,1.90
2019-02-21T01:59:05.589Z,1.90
2019-02-21T02:00:04.667Z,1.90
2019-02-21T02:01:08.283Z,1.90
2019-02-21T02:02:07.659Z,1.90
2019-02-21T02:03:08.254Z,1.90
2019-02-21T02:04:07.828Z,1.90
2019-02-21T02:05:07.275Z,1.80
2019-02-21T02:06:05.204Z,1.80
2019-02-21T02:07:05.307Z,1.80
2019-02-21T02:08:05.485Z,1.80
2019-02-21T02:09:08.183Z,1.80
2019-02-21T02:10:05.123Z,1.80
2019-02-21T02:11:05.474Z,1.80
2019-02-21T02:12:05.615Z,1.80
2019-02-21T02:13:04.698Z,1.80
2019-02-21T02:14:04.800Z,1.80
2019-02-21T02:15:04.951Z,1.80
2019-02-21T02:16:05.105Z,1.80
2019-02-21T02:17:05.201Z,1.80
2019-02-21T02:18:05.403Z,1.70
2019-02-21T02:19:05.506Z,1.80
2019-02-21T02:20:05.696Z,1.80
2019-02-21T02:21:05.026Z,1.80
2019-02-21T02:22:05.125Z,1.70
2019-02-21T02:23:05.235Z,1.70
2019-02-21T02:24:07.848Z,1.70
2019-02-21T02:25:04.994Z,1.70
2019-02-21T02:26:05.135Z,1.70
2019-02-21T02:27:05.370Z,1.70
2019-02-21T02:28:08.049Z,1.70
2019-02-21T02:29:04.980Z,1.70
2019-02-21T02:30:07.934Z,1.70
2019-02-21T02:31:04.862Z,1.70
2019-02-21T02:32:04.979Z,1.60
2019-02-21T02:33:05.208Z,1.60
2019-02-21T02:34:05.363Z,1.70
2019-02-21T02:35:08.056Z,1.60
2019-02-21T02:36:07.530Z,1.60
2019-02-21T02:37:05.435Z,1.60
2019-02-21T02:38:05.631Z,1.60
2019-02-21T02:39:04.812Z,1.60
2019-02-21T02:40:04.963Z,1.70
2019-02-21T02:41:07.609Z,1.70
2019-02-21T02:42:05.609Z,1.70
2019-02-21T02:43:04.693Z,1.70
2019-02-21T02:44:04.865Z,1.70
2019-02-21T02:45:05.055Z,1.70
2019-02-21T02:46:05.155Z,1.80
2019-02-21T02:47:05.386Z,1.80
2019-02-21T02:48:05.635Z,1.70
2019-02-21T02:49:07.331Z,1.80
2019-02-21T02:50:07.798Z,1.80
2019-02-21T02:51:07.338Z,1.80
2019-02-21T02:52:07.954Z,1.80
2019-02-21T02:53:07.563Z,1.80
2019-02-21T02:54:08.105Z,1.80
2019-02-21T02:55:05.031Z,1.80
2019-02-21T02:56:05.108Z,1.80
2019-02-21T02:57:05.187Z,1.90
2019-02-21T02:58:06.474Z,1.90
2019-02-21T02:59:07.534Z,1.90
2019-02-21T03:00:05.648Z,1.90
2019-02-21T03:01:04.815Z,1.90
2019-02-21T03:02:04.916Z,1.90
2019-02-21T03:03:05.029Z,1.90
2019-02-21T03:04:05.317Z,1.80
2019-02-21T03:05:05.534Z,1.90
2019-02-21T03:06:07.331Z,1.90
2019-02-21T03:07:05.386Z,1.90
2019-02-21T03:08:05.634Z,1.90
2019-02-21T03:09:04.837Z,1.90
2019-02-21T03:10:07.578Z,1.90
2019-02-21T03:11:05.609Z,1.80
2019-02-21T03:12:07.457Z,1.90
2019-02-21T03:13:05.612Z,1.90
2019-02-21T03:14:04.817Z,1.90
2019-02-21T03:15:04.937Z,1.90
2019-02-21T03:16:07.617Z,1.90
2019-02-21T03:17:08.208Z,1.80
2019-02-21T03:18:07.764Z,1.90
2019-02-21T03:19:04.738Z,1.80
2019-02-21T03:20:04.985Z,1.90
2019-02-21T03:21:05.104Z,1.80
2019-02-21T03:22:07.761Z,1.90
2019-02-21T03:23:07.388Z,1.90
2019-02-21T03:24:05.506Z,1.90
2019-02-21T03:25:07.202Z,1.90
2019-02-21T03:26:07.669Z,1.90
2019-02-21T03:27:04.731Z,1.90
2019-02-21T03:28:05.137Z,1.90
2019-02-21T03:29:05.205Z,1.90
2019-02-21T03:30:05.600Z,1.90
2019-02-21T03:31:04.845Z,1.90
2019-02-21T03:32:04.941Z,2.00
2019-02-21T03:33:05.071Z,2.00
2019-02-21T03:34:05.262Z,2.00
2019-02-21T03:35:05.492Z,2.00
2019-02-21T03:36:08.141Z,2.00
2019-02-21T03:37:07.796Z,2.00
2019-02-21T03:38:04.864Z,2.00
2019-02-21T03:39:07.570Z,2.10
2019-02-21T03:40:08.233Z,2.00
2019-02-21T03:41:07.802Z,2.00
2019-02-21T03:42:05.024Z,2.00
2019-02-21T03:43:05.236Z,2.00
2019-02-21T03:44:10.394Z,2.00
2019-02-21T03:45:08.073Z,2.10
2019-02-21T03:46:05.193Z,2.10
2019-02-21T03:47:10.455Z,2.00
2019-02-21T03:48:07.915Z,2.10
2019-02-21T03:49:07.590Z,2.00
2019-02-21T03:50:05.655Z,2.10
2019-02-21T03:51:07.416Z,2.10
2019-02-21T03:52:05.514Z,2.00
2019-02-21T03:53:04.673Z,2.00
2019-02-21T03:54:04.879Z,2.00
2019-02-21T03:55:05.096Z,2.10
2019-02-21T03:56:07.813Z,2.10
2019-02-21T03:57:09.990Z,2.00
2019-02-21T03:58:05.034Z,2.00
2019-02-21T03:59:07.691Z,2.10
2019-02-21T04:00:04.884Z,2.00
2019-02-21T04:01:07.735Z,2.10
2019-02-21T04:02:05.723Z,2.10
2019-02-21T04:03:04.968Z,2.10
2019-02-21T04:04:07.711Z,2.10
2019-02-21T04:05:07.417Z,2.10
2019-02-21T04:06:05.478Z,2.10
2019-02-21T04:07:08.288Z,2.10
2019-02-21T04:08:05.268Z,2.10
2019-02-21T04:09:05.356Z,2.10
2019-02-21T04:10:05.623Z,2.10
2019-02-21T04:11:04.977Z,2.10
2019-02-21T04:12:07.733Z,2.10
2019-02-21T04:13:04.741Z,2.10
2019-02-21T04:14:04.836Z,2.10
2019-02-21T04:15:07.472Z,2.10
2019-02-21T04:16:05.526Z,2.10
2019-02-21T04:17:04.738Z,2.10
2019-02-21T04:18:04.897Z,2.10
2019-02-21T04:19:05.056Z,2.10
2019-02-21T04:20:07.753Z,2.20
2019-02-21T04:21:07.363Z,2.20
2019-02-21T04:22:05.428Z,2.20
2019-02-21T04:23:05.610Z,2.20
2019-02-21T04:24:04.856Z,2.20
2019-02-21T04:25:04.966Z,2.20
2019-02-21T04:26:05.092Z,2.20
2019-02-21T04:27:12.957Z,2.20
2019-02-21T04:28:07.480Z,2.30
2019-02-21T04:29:08.039Z,2.30
2019-02-21T04:30:04.998Z,2.20
2019-02-21T04:31:05.128Z,2.30
2019-02-21T04:32:14.209Z,2.30
2019-02-21T04:33:07.694Z,2.30
2019-02-21T04:34:04.664Z,2.20
2019-02-21T04:35:07.517Z,2.30
2019-02-21T04:36:05.510Z,2.30
2019-02-21T04:37:05.650Z,2.20
2019-02-21T04:38:07.322Z,2.30
2019-02-21T04:39:05.392Z,2.30
2019-02-21T04:40:08.294Z,2.20
2019-02-21T04:41:05.318Z,2.20
2019-02-21T04:42:05.458Z,2.30
2019-02-21T04:43:05.574Z,2.30
2019-02-21T04:44:07.382Z,2.30
2019-02-21T04:45:05.465Z,2.30
2019-02-21T04:46:05.620Z,2.30
2019-02-21T04:47:07.278Z,2.30
2019-02-21T04:48:05.303Z,2.30
2019-02-21T04:49:05.550Z,2.40
2019-02-21T04:50:04.729Z,2.40
2019-02-21T04:51:09.895Z,2.40
2019-02-21T04:52:07.570Z,2.40
2019-02-21T04:53:05.659Z,2.40
2019-02-21T04:54:04.716Z,2.40
2019-02-21T04:55:04.858Z,2.40
2019-02-21T04:56:04.984Z,2.40
2019-02-21T04:57:07.725Z,2.40
2019-02-21T04:58:04.728Z,2.40
2019-02-21T04:59:06.670Z,2.40
2019-02-21T05:00:07.622Z,2.40
2019-02-21T05:01:05.623Z,2.50
2019-02-21T05:02:04.856Z,2.40
2019-02-21T05:03:07.539Z,2.40
2019-02-21T05:04:05.533Z,2.40
2019-02-21T05:05:07.185Z,2.40
2019-02-21T05:06:05.206Z,2.40
2019-02-21T05:07:05.359Z,2.40
2019-02-21T05:08:05.426Z,2.40
2019-02-21T05:09:07.351Z,2.40
2019-02-21T05:10:04.784Z,2.40
2019-02-21T05:11:04.829Z,2.40
2019-02-21T05:12:04.926Z,2.40
2019-02-21T05:13:04.997Z,2.40
2019-02-21T05:14:05.110Z,2.30
2019-02-21T05:15:05.292Z,2.30
2019-02-21T05:16:05.375Z,2.30
2019-02-21T05:17:05.625Z,2.30
2019-02-21T05:18:04.765Z,2.30
2019-02-21T05:19:04.993Z,2.30
2019-02-21T05:20:07.660Z,2.30
2019-02-21T05:21:05.775Z,2.30
2019-02-21T05:22:07.394Z,2.30
2019-02-21T05:23:05.368Z,2.30
2019-02-21T05:24:08.131Z,2.30
2019-02-21T05:25:05.469Z,2.20
2019-02-21T05:26:05.294Z,2.20
2019-02-21T05:27:07.249Z,2.20
2019-02-21T05:28:10.251Z,2.20
2019-02-21T05:29:05.192Z,2.20
2019-02-21T05:30:07.470Z,2.20
2019-02-21T05:31:05.561Z,2.30
2019-02-21T05:32:04.752Z,2.30
2019-02-21T05:33:07.406Z,2.30
2019-02-21T05:34:05.610Z,2.30
2019-02-21T05:35:04.770Z,2.20
2019-02-21T05:36:04.978Z,2.20
2019-02-21T05:37:05.074Z,2.20
2019-02-21T05:38:07.950Z,2.20
2019-02-21T05:39:05.152Z,2.20
2019-02-21T05:40:05.348Z,2.30
2019-02-21T05:41:05.653Z,2.20
2019-02-21T05:42:04.895Z,2.30
2019-02-21T05:43:05.072Z,2.20
2019-02-21T05:44:05.218Z,2.20
2019-02-21T05:45:05.365Z,2.20
2019-02-21T05:46:08.065Z,2.20
2019-02-21T05:47:07.558Z,2.20
2019-02-21T05:48:05.577Z,2.20
2019-02-21T05:49:04.796Z,2.20
2019-02-21T05:50:05.031Z,2.20
2019-02-21T05:51:05.163Z,2.20
2019-02-21T05:52:14.676Z,2.20
2019-02-21T05:53:04.742Z,2.20
2019-02-21T05:54:07.326Z,2.20
2019-02-21T05:55:05.301Z,2.20
2019-02-21T05:56:08.021Z,2.20
2019-02-21T05:57:07.570Z,2.20
2019-02-21T05:58:08.127Z,2.20
2019-02-21T05:59:07.678Z,2.20
2019-02-21T06:00:04.676Z,2.20
2019-02-21T06:01:04.841Z,2.20
2019-02-21T06:02:07.493Z,2.20
2019-02-21T06:03:05.495Z,2.20
2019-02-21T06:04:04.853Z,2.20
2019-02-21T06:05:05.156Z,2.20
2019-02-21T06:06:05.320Z,2.20
2019-02-21T06:07:05.471Z,2.20
2019-02-21T06:08:05.578Z,2.20
2019-02-21T06:09:04.731Z,2.20
2019-02-21T06:10:07.387Z,2.20
2019-02-21T06:11:05.367Z,2.20
2019-02-21T06:12:05.473Z,2.20
2019-02-21T06:13:05.629Z,2.20
2019-02-21T06:14:04.925Z,2.20
2019-02-21T06:15:05.092Z,2.20
2019-02-21T06:16:05.194Z,2.20
2019-02-21T06:17:05.489Z,2.10
2019-02-21T06:18:05.623Z,2.20
2019-02-21T06:19:04.826Z,2.20
2019-02-21T06:20:10.112Z,2.10
2019-02-21T06:21:05.169Z,2.10
2019-02-21T06:22:10.329Z,2.10
2019-02-21T06:23:05.339Z,2.10
2019-02-21T06:24:07.956Z,2.00
2019-02-21T06:25:04.942Z,2.00
2019-02-21T06:26:05.099Z,2.00
2019-02-21T06:27:07.731Z,2.10
2019-02-21T06:28:04.837Z,2.10
2019-02-21T06:29:10.202Z,2.00
2019-02-21T06:30:07.949Z,2.10
2019-02-21T06:31:04.991Z,2.00
2019-02-21T06:32:13.761Z,2.10
2019-02-21T06:33:05.669Z,2.10
2019-02-21T06:34:07.385Z,2.10
2019-02-21T06:35:05.390Z,2.10
2019-02-21T06:36:05.644Z,2.20
2019-02-21T06:37:07.433Z,2.10
2019-02-21T06:38:05.311Z,2.10
2019-02-21T06:39:08.154Z,2.10
2019-02-21T06:40:15.330Z,2.10
2019-02-21T06:41:10.541Z,2.20
2019-02-21T06:42:08.191Z,2.20
2019-02-21T06:43:05.385Z,2.20
2019-02-21T06:44:08.279Z,2.20
2019-02-21T06:45:05.266Z,2.20
2019-02-21T06:46:05.453Z,2.20
2019-02-21T06:47:08.281Z,2.20
2019-02-21T06:48:05.320Z,2.20
2019-02-21T06:49:05.526Z,2.30
2019-02-21T06:50:04.731Z,2.20
2019-02-21T06:51:07.393Z,2.20
2019-02-21T06:52:05.401Z,2.30
2019-02-21T06:53:05.636Z,2.30
2019-02-21T06:54:07.515Z,2.30
2019-02-21T06:55:05.549Z,2.30
2019-02-21T06:56:07.375Z,2.30
2019-02-21T06:57:10.506Z,2.30
2019-02-21T06:58:08.020Z,2.30
2019-02-21T06:59:07.570Z,2.30
2019-02-21T07:00:05.599Z,2.30
2019-02-21T07:01:07.310Z,2.30
2019-02-21T07:02:07.960Z,2.40
2019-02-21T07:03:15.077Z,2.30
2019-02-21T07:04:07.538Z,2.40
2019-02-21T07:05:05.571Z,2.40
2019-02-21T07:06:07.207Z,2.40
2019-02-21T07:07:05.363Z,2.40
2019-02-21T07:08:05.593Z,2.50
2019-02-21T07:09:07.319Z,2.50
2019-02-21T07:10:05.309Z,2.50
2019-02-21T07:11:06.376Z,2.50
2019-02-21T07:12:04.784Z,2.60
2019-02-21T07:13:05.106Z,2.60
2019-02-21T07:14:07.814Z,2.60
2019-02-21T07:15:04.928Z,2.60
2019-02-21T07:16:07.598Z,2.70
2019-02-21T07:17:04.779Z,2.70
2019-02-21T07:18:07.488Z,2.70
2019-02-21T07:19:05.606Z,2.70
2019-02-21T07:20:07.431Z,2.80
2019-02-21T07:21:05.443Z,2.80
2019-02-21T07:22:06.337Z,2.80
2019-02-21T07:23:05.650Z,2.90
2019-02-21T07:24:04.785Z,2.90
2019-02-21T07:25:07.414Z,3.00
2019-02-21T07:26:07.941Z,3.10
2019-02-21T07:27:04.991Z,3.10
2019-02-21T07:28:11.513Z,3.10
2019-02-21T07:29:05.533Z,3.10
2019-02-21T07:30:05.122Z,3.20
2019-02-21T07:31:05.161Z,3.20
2019-02-21T07:32:05.343Z,3.20
2019-02-21T07:33:08.121Z,3.30
2019-02-21T07:34:06.943Z,3.30
2019-02-21T07:35:05.288Z,3.40
2019-02-21T07:36:05.569Z,3.40
2019-02-21T07:37:04.769Z,3.40
2019-02-21T07:38:05.010Z,3.50
2019-02-21T07:39:16.697Z,3.50
2019-02-21T07:40:05.760Z,3.60
2019-02-21T07:41:05.145Z,3.60
2019-02-21T07:42:08.124Z,3.70
2019-02-21T07:43:07.643Z,3.80
2019-02-21T07:44:11.860Z,3.80
2019-02-21T07:45:05.366Z,3.80
2019-02-21T07:46:06.831Z,3.80
2019-02-21T07:47:08.322Z,3.90
2019-02-21T07:48:05.384Z,3.90
2019-02-21T07:49:13.277Z,4.00
2019-02-21T07:50:10.316Z,4.10
2019-02-21T07:51:05.347Z,4.00
2019-02-21T07:52:05.649Z,4.10
2019-02-21T07:53:05.022Z,4.10
2019-02-21T07:54:05.238Z,4.10
2019-02-21T07:55:05.352Z,4.10
2019-02-21T07:56:05.594Z,4.20
2019-02-21T07:57:04.791Z,4.20
2019-02-21T07:58:07.486Z,4.20
2019-02-21T07:59:05.555Z,4.20
2019-02-21T08:00:07.391Z,4.30
2019-02-21T08:01:05.476Z,4.20
2019-02-21T08:02:08.268Z,4.30
2019-02-21T08:03:05.411Z,4.30
2019-02-21T08:04:05.631Z,4.30
2019-02-21T08:05:09.871Z,4.30
2019-02-21T08:06:07.384Z,4.40
2019-02-21T08:07:07.936Z,4.40
2019-02-21T08:08:05.011Z,4.40
2019-02-21T08:09:07.794Z,4.40
2019-02-21T08:10:04.899Z,4.40
2019-02-21T08:11:07.089Z,4.50
2019-02-21T08:12:05.359Z,4.40
2019-02-21T08:13:05.470Z,4.50
2019-02-21T08:14:10.686Z,4.50
2019-02-21T08:15:04.717Z,4.50
2019-02-21T08:16:04.846Z,4.60
2019-02-21T08:17:04.969Z,4.50
2019-02-21T08:18:07.777Z,4.60
2019-02-21T08:19:04.737Z,4.60
2019-02-21T08:20:08.568Z,4.60
2019-02-21T08:21:07.520Z,4.70
2019-02-21T08:22:05.530Z,4.70
2019-02-21T08:23:05.706Z,4.70
2019-02-21T08:24:07.391Z,4.70
2019-02-21T08:25:07.968Z,4.70
2019-02-21T08:26:04.980Z,4.70
2019-02-21T08:27:07.646Z,4.80
2019-02-21T08:28:08.157Z,4.90
2019-02-21T08:29:06.069Z,4.90
2019-02-21T08:30:05.477Z,4.90
2019-02-21T08:31:04.683Z,4.90
2019-02-21T08:32:04.877Z,4.90
2019-02-21T08:33:05.167Z,4.90
2019-02-21T08:34:05.461Z,4.90
2019-02-21T08:35:06.789Z,5.00
2019-02-21T08:36:07.521Z,5.00
2019-02-21T08:37:13.088Z,5.00
2019-02-21T08:38:07.635Z,5.00
2019-02-21T08:39:07.331Z,5.00
2019-02-21T08:40:05.378Z,5.00
2019-02-21T08:41:05.554Z,5.10
2019-02-21T08:42:04.811Z,5.10
2019-02-21T08:43:07.546Z,5.20
2019-02-21T08:44:08.186Z,5.20
2019-02-21T08:45:05.338Z,5.20
2019-02-21T08:46:05.515Z,5.30
2019-02-21T08:47:04.738Z,5.30
2019-02-21T08:48:05.245Z,5.40
2019-02-21T08:49:08.085Z,5.40
2019-02-21T08:50:05.095Z,5.40
2019-02-21T08:51:07.927Z,5.50
2019-02-21T08:52:07.541Z,5.50
2019-02-21T08:53:08.291Z,5.50
2019-02-21T08:54:05.728Z,5.60
2019-02-21T08:55:05.057Z,5.60
2019-02-21T08:56:05.326Z,5.60
2019-02-21T08:57:08.183Z,5.60
2019-02-21T08:58:10.281Z,5.60
2019-02-21T08:59:05.432Z,5.60
2019-02-21T09:00:10.850Z,5.60
2019-02-21T09:01:12.838Z,5.70
2019-02-21T09:02:05.124Z,5.70
2019-02-21T09:03:08.023Z,5.70
2019-02-21T09:04:10.298Z,5.70
2019-02-21T09:05:04.834Z,5.70
2019-02-21T09:06:05.173Z,5.80
2019-02-21T09:07:05.302Z,5.80
2019-02-21T09:08:05.543Z,5.80
2019-02-21T09:09:04.712Z,5.80
2019-02-21T09:10:04.957Z,5.90
2019-02-21T09:11:05.200Z,5.90
2019-02-21T09:12:05.703Z,5.90
2019-02-21T09:13:05.039Z,5.90
2019-02-21T09:14:07.865Z,6.00
2019-02-21T09:15:07.588Z,6.00
2019-02-21T09:16:05.711Z,6.00
2019-02-21T09:17:07.501Z,6.10
2019-02-21T09:18:08.138Z,6.10
2019-02-21T09:19:07.681Z,6.20
2019-02-21T09:20:05.780Z,6.20
2019-02-21T09:21:07.506Z,6.30
2019-02-21T09:22:05.516Z,6.20
2019-02-21T09:23:05.624Z,6.30
2019-02-21T09:24:04.829Z,6.40
2019-02-21T09:25:07.679Z,6.50
2019-02-21T09:26:07.285Z,6.60
2019-02-21T09:27:07.997Z,6.60
2019-02-21T09:28:05.196Z,6.60
2019-02-21T09:29:13.057Z,6.70
2019-02-21T09:30:05.202Z,6.70
2019-02-21T09:31:07.999Z,6.80
2019-02-21T09:32:06.902Z,6.80
2019-02-21T09:33:16.946Z,6.80
2019-02-21T09:34:04.883Z,6.90
2019-02-21T09:35:07.652Z,6.90
2019-02-21T09:36:04.685Z,6.90
2019-02-21T09:37:05.502Z,7.00
2019-02-21T09:38:04.857Z,7.00
2019-02-21T09:39:05.115Z,7.00
2019-02-21T09:40:07.831Z,7.10
2019-02-21T09:41:05.514Z,7.10
2019-02-21T09:42:04.672Z,7.20
2019-02-21T09:43:07.368Z,7.20
2019-02-21T09:44:05.392Z,7.20
2019-02-21T09:45:09.348Z,7.30
2019-02-21T09:46:05.510Z,7.30
2019-02-21T09:47:04.684Z,7.40
2019-02-21T09:48:04.811Z,7.30
2019-02-21T09:49:05.073Z,7.40
2019-02-21T09:50:05.324Z,7.50
2019-02-21T09:51:05.555Z,7.50
2019-02-21T09:52:04.768Z,7.60
2019-02-21T09:53:05.027Z,7.70
2019-02-21T09:54:07.744Z,7.80
2019-02-21T09:55:07.200Z,7.80
2019-02-21T09:56:05.273Z,7.90
2019-02-21T09:57:12.701Z,7.90
2019-02-21T09:58:10.861Z,7.90
2019-02-21T09:59:04.914Z,8.00
2019-02-21T10:00:05.073Z,8.00
2019-02-21T10:01:05.199Z,8.10
2019-02-21T10:02:05.555Z,8.10
2019-02-21T10:03:04.914Z,8.10
2019-02-21T10:04:05.139Z,8.10
2019-02-21T10:05:05.708Z,8.10
2019-02-21T10:06:05.025Z,8.10
2019-02-21T10:07:05.622Z,8.10
2019-02-21T10:08:04.771Z,8.10
2019-02-21T10:09:04.973Z,8.10
2019-02-21T10:10:08.203Z,8.10
2019-02-21T10:11:08.065Z,8.10
2019-02-21T10:12:05.239Z,8.10
2019-02-21T10:13:07.288Z,8.10
2019-02-21T10:14:05.281Z,8.10
2019-02-21T10:15:10.619Z,8.10
2019-02-21T10:16:05.727Z,8.20
2019-02-21T10:17:10.022Z,8.20
2019-02-21T10:18:05.011Z,8.20
2019-02-21T10:19:05.333Z,8.20
2019-02-21T10:20:05.730Z,8.20
2019-02-21T10:21:05.108Z,8.20
2019-02-21T10:22:05.327Z,8.20
2019-02-21T10:23:05.461Z,8.20
2019-02-21T10:24:05.542Z,8.20
2019-02-21T10:25:04.810Z,8.20
2019-02-21T10:26:04.989Z,8.30
2019-02-21T10:27:07.683Z,8.30
2019-02-21T10:28:04.822Z,8.30
2019-02-21T10:29:05.161Z,8.40
2019-02-21T10:30:05.637Z,8.40
2019-02-21T10:31:07.414Z,8.40
2019-02-21T10:32:10.564Z,8.40
2019-02-21T10:33:05.551Z,8.40
2019-02-21T10:34:04.758Z,8.40
2019-02-21T10:35:04.874Z,8.40
2019-02-21T10:36:07.542Z,8.40
2019-02-21T10:37:05.565Z,8.40
2019-02-21T10:38:04.676Z,8.40
2019-02-21T10:39:04.972Z,8.40
2019-02-21T10:40:07.603Z,8.40
2019-02-21T10:41:05.684Z,8.40
2019-02-21T10:42:04.900Z,8.40
2019-02-21T10:43:05.248Z,8.40
2019-02-21T10:44:10.906Z,8.50
2019-02-21T10:45:10.184Z,8.40
2019-02-21T10:46:05.262Z,8.40
2019-02-21T10:47:05.485Z,8.50
2019-02-21T10:48:04.705Z,8.50
2019-02-21T10:49:07.481Z,8.40
2019-02-21T10:50:05.551Z,8.50
2019-02-21T10:51:04.742Z,8.50
2019-02-21T10:52:04.900Z,8.50
2019-02-21T10:53:07.604Z,8.40
2019-02-21T10:54:05.617Z,8.40
2019-02-21T10:55:07.272Z,8.40
2019-02-21T10:56:07.855Z,8.40
2019-02-21T10:57:07.434Z,8.40
2019-02-21T10:58:07.948Z,8.40
2019-02-21T10:59:05.098Z,8.40
2019-02-21T11:00:05.452Z,8.40
2019-02-21T11:01:04.805Z,8.40
2019-02-21T11:02:05.028Z,8.40
2019-02-21T11:03:05.186Z,8.40
2019-02-21T11:04:05.318Z,8.40
2019-02-21T11:05:10.646Z,8.40
2019-02-21T11:06:12.371Z,8.30
2019-02-21T11:07:05.407Z,8.30
2019-02-21T11:08:07.365Z,8.30
2019-02-21T11:09:05.384Z,8.40
2019-02-21T11:10:08.057Z,8.40
2019-02-21T11:11:07.605Z,8.40
2019-02-21T11:12:08.160Z,8.30
2019-02-21T11:13:05.109Z,8.30
2019-02-21T11:14:07.840Z,8.40
2019-02-21T11:15:07.600Z,8.40
2019-02-21T11:16:05.656Z,8.40
2019-02-21T11:17:04.858Z,8.40
2019-02-21T11:18:05.223Z,8.40
2019-02-21T11:19:05.552Z,8.40
2019-02-21T11:20:04.760Z,8.40
2019-02-21T11:21:05.020Z,8.40
2019-02-21T11:22:07.771Z,8.40
2019-02-21T11:23:06.554Z,8.30
2019-02-21T11:24:04.914Z,8.30
2019-02-21T11:25:07.708Z,8.30
2019-02-21T11:26:04.877Z,8.30
2019-02-21T11:27:07.647Z,8.30
2019-02-21T11:28:05.645Z,8.30
2019-02-21T11:29:07.279Z,8.30
2019-02-21T11:30:08.167Z,8.40
2019-02-21T11:31:05.231Z,8.40
2019-02-21T11:32:05.402Z,8.40
2019-02-21T11:33:05.608Z,8.40
2019-02-21T11:34:04.810Z,8.40
2019-02-21T11:35:06.464Z,8.40
2019-02-21T11:36:04.996Z,8.40
2019-02-21T11:37:05.159Z,8.40
2019-02-21T11:38:05.331Z,8.40
2019-02-21T11:39:07.232Z,8.50
2019-02-21T11:40:05.538Z,8.40
2019-02-21T11:41:07.549Z,8.50
2019-02-21T11:42:05.592Z,8.40
2019-02-21T11:43:04.753Z,8.50
2019-02-21T11:44:07.470Z,8.50
2019-02-21T11:45:05.446Z,8.50
2019-02-21T11:46:05.699Z,8.50
2019-02-21T11:47:04.957Z,8.50
2019-02-21T11:48:09.245Z,8.50
2019-02-21T11:49:07.979Z,8.50
2019-02-21T11:50:07.527Z,8.50
2019-02-21T11:51:07.343Z,8.50
2019-02-21T11:52:09.986Z,8.50
2019-02-21T11:53:08.136Z,8.50
2019-02-21T11:54:05.219Z,8.50
2019-02-21T11:55:05.475Z,8.50
2019-02-21T11:56:05.683Z,8.50
2019-02-21T11:57:04.888Z,8.50
2019-02-21T11:58:07.545Z,8.50
2019-02-21T11:59:05.741Z,8.50
2019-02-21T12:00:04.964Z,8.50
2019-02-21T12:01:07.748Z,8.50
2019-02-21T12:02:07.301Z,8.50
2019-02-21T12:03:05.489Z,8.50
2019-02-21T12:04:08.201Z,8.50
2019-02-21T12:05:17.007Z,8.50
2019-02-21T12:06:08.209Z,8.50
2019-02-21T12:07:05.242Z,8.50
2019-02-21T12:08:05.325Z,8.50
2019-02-21T12:09:08.031Z,8.50
2019-02-21T12:10:07.629Z,8.50
2019-02-21T12:11:04.690Z,8.50
2019-02-21T12:12:04.893Z,8.50
2019-02-21T12:13:05.022Z,8.50
2019-02-21T12:14:07.637Z,8.50
2019-02-21T12:15:08.133Z,8.60
2019-02-21T12:16:07.838Z,8.60
2019-02-21T12:17:07.449Z,8.60
2019-02-21T12:18:08.195Z,8.60
2019-02-21T12:19:07.778Z,8.60
2019-02-21T12:20:04.828Z,8.60
2019-02-21T12:21:07.477Z,8.60
2019-02-21T12:22:05.435Z,8.60
2019-02-21T12:23:05.525Z,8.70
2019-02-21T12:24:04.799Z,8.70
2019-02-21T12:25:04.973Z,8.70
2019-02-21T12:26:05.196Z,8.70
2019-02-21T12:27:05.374Z,8.80
2019-02-21T12:28:05.567Z,8.80
2019-02-21T12:29:04.725Z,8.80
2019-02-21T12:30:07.918Z,8.90
2019-02-21T12:31:04.997Z,8.90
2019-02-21T12:32:05.186Z,8.90
2019-02-21T12:33:05.342Z,9.00
2019-02-21T12:34:08.017Z,9.00
2019-02-21T12:35:05.090Z,9.10
2019-02-21T12:36:05.347Z,9.10
2019-02-21T12:37:08.050Z,9.10
2019-02-21T12:38:05.266Z,9.20
2019-02-21T12:39:05.571Z,9.20
2019-02-21T12:40:04.786Z,9.20
2019-02-21T12:41:04.863Z,9.30
2019-02-21T12:42:07.635Z,9.40
2019-02-21T12:43:04.716Z,9.30
2019-02-21T12:44:04.890Z,9.40
2019-02-21T12:45:07.563Z,9.40
2019-02-21T12:46:05.675Z,9.50
2019-02-21T12:47:04.814Z,9.50
2019-02-21T12:48:12.544Z,9.50
2019-02-21T12:49:05.699Z,9.50
2019-02-21T12:50:04.884Z,9.60
2019-02-21T12:51:07.535Z,9.60
2019-02-21T12:52:08.036Z,9.60
2019-02-21T12:53:07.642Z,9.70
2019-02-21T12:54:05.689Z,9.60
2019-02-21T12:55:04.847Z,9.70
2019-02-21T12:56:05.133Z,9.70
2019-02-21T12:57:05.522Z,9.70
2019-02-21T12:58:07.219Z,9.80
2019-02-21T12:59:05.261Z,9.80
2019-02-21T13:00:07.957Z,9.80
2019-02-21T13:01:07.524Z,9.90
2019-02-21T13:02:05.561Z,9.80
2019-02-21T13:03:04.890Z,9.90
2019-02-21T13:04:05.028Z,9.90
2019-02-21T13:05:07.724Z,10.00
2019-02-21T13:06:07.228Z,10.00
2019-02-21T13:07:05.328Z,10.00
2019-02-21T13:08:08.092Z,10.00
2019-02-21T13:09:05.154Z,10.00
2019-02-21T13:10:05.460Z,10.00
2019-02-21T13:11:08.192Z,10.10
2019-02-21T13:12:05.131Z,10.00
2019-02-21T13:13:07.920Z,10.10
2019-02-21T13:14:07.465Z,10.10
2019-02-21T13:15:07.954Z,10.10
2019-02-21T13:16:04.967Z,10.10
2019-02-21T13:17:07.581Z,10.20
2019-02-21T13:18:15.209Z,10.10